createdAt,value
2022-11-05T00:00:37.433Z,14.80
2022-11-05T00:03:23.150Z,14.80
2022-11-05T00:06:12.345Z,14.30
2022-11-05T00:08:59.119Z,15.20
2022-11-05T00:11:45.627Z,14.60
2022-11-05T00:14:31.421Z,15.10
2022-11-05T00:16:57.851Z,14.90
2022-11-05T00:19:24.218Z,15.10
2022-11-05T00:22:09.036Z,14.70
2022-11-05T00:24:53.901Z,14.00
2022-11-05T00:27:20.331Z,15.90
2022-11-05T00:29:46.772Z,14.90
2022-11-05T00:32:13.161Z,14.90
2022-11-05T00:34:39.817Z,14.20
2022-11-05T00:37:06.271Z,15.10
2022-11-05T00:39:32.664Z,14.50
2022-11-05T00:42:19.363Z,15.30
2022-11-05T00:45:03.713Z,15.90
2022-11-05T00:47:51.432Z,13.80
2022-11-05T00:50:21.121Z,8.10
2022-11-05T00:52:57.164Z,15.40
2022-11-05T00:55:33.478Z,14.80
2022-11-05T00:58:03.420Z,14.70
2022-11-05T01:00:32.321Z,14.70
2022-11-05T01:03:06.148Z,15.70
2022-11-05T01:05:37.845Z,15.00
2022-11-05T01:08:04.352Z,13.80
2022-11-05T01:10:31.834Z,14.50
2022-11-05T01:12:59.080Z,14.80
2022-11-05T01:15:25.625Z,14.00
2022-11-05T01:17:52.438Z,13.20
2022-11-05T01:20:19.126Z,14.30
2022-11-05T01:22:45.545Z,14.80
2022-11-05T01:25:12.061Z,15.20
2022-11-05T01:27:39.500Z,14.50
2022-11-05T01:30:08.590Z,15.50
2022-11-05T01:32:36.650Z,15.20
2022-11-05T01:35:10.402Z,14.20
2022-11-05T01:37:36.852Z,15.00
2022-11-05T01:40:04.926Z,15.40
2022-11-05T01:42:33.345Z,15.30
2022-11-05T01:45:12.402Z,15.30
2022-11-05T01:48:14.065Z,14.90
2022-11-05T01:51:04.195Z,15.00
2022-11-05T01:53:39.613Z,14.80
2022-11-05T01:56:31.591Z,15.70
2022-11-05T01:59:16.308Z,14.80
2022-11-05T02:01:42.822Z,14.90
2022-11-05T02:04:30.176Z,15.50
2022-11-05T02:06:57.073Z,14.10
2022-11-05T02:09:36.795Z,13.80
2022-11-05T02:12:03.903Z,14.90
2022-11-05T02:14:30.351Z,14.10
2022-11-05T02:17:08.378Z,15.20
2022-11-05T02:20:14.751Z,14.70
2022-11-05T02:23:25.128Z,14.60
2022-11-05T02:26:31.870Z,14.70
2022-11-05T02:29:52.636Z,14.70
2022-11-05T02:33:08.875Z,14.30
2022-11-05T02:36:02.773Z,14.40
2022-11-05T02:38:54.225Z,14.10
2022-11-05T02:41:41.457Z,15.00
2022-11-05T02:44:38.728Z,14.90
2022-11-05T02:47:38.058Z,15.20
2022-11-05T02:50:24.359Z,14.20
2022-11-05T02:53:02.789Z,14.60
2022-11-05T02:56:07.639Z,13.60
2022-11-05T02:58:35.701Z,13.70
2022-11-05T03:01:06.890Z,15.10
2022-11-05T03:03:43.016Z,14.80
2022-11-05T03:06:39.817Z,14.70
2022-11-05T03:09:34.721Z,15.80
2022-11-05T03:12:26.018Z,15.80
2022-11-05T03:15:31.710Z,14.60
2022-11-05T03:18:21.734Z,15.80
2022-11-05T03:21:04.557Z,14.60
2022-11-05T03:23:51.942Z,14.30
2022-11-05T03:26:28.616Z,14.70
2022-11-05T03:29:06.685Z,14.90
2022-11-05T03:31:37.320Z,14.40
2022-11-05T03:34:08.674Z,14.20
2022-11-05T03:36:45.888Z,13.50
2022-11-05T03:39:21.680Z,14.60
2022-11-05T03:41:53.604Z,14.00
2022-11-05T03:44:29.216Z,13.50
2022-11-05T03:47:11.723Z,11.50
2022-11-05T03:49:48.659Z,15.00
2022-11-05T03:52:24.331Z,14.60
2022-11-05T03:54:50.874Z,14.00
2022-11-05T03:57:26.789Z,13.30
2022-11-05T03:59:53.244Z,14.10
2022-11-05T04:02:25.811Z,13.70
2022-11-05T04:04:54.007Z,14.30
2022-11-05T04:07:39.325Z,13.20
2022-11-05T04:10:24.711Z,13.50
2022-11-05T04:13:09.972Z,13.20
2022-11-05T04:15:56.599Z,12.60
2022-11-05T04:18:23.278Z,12.80
2022-11-05T04:21:08.000Z,12.60
2022-11-05T04:23:52.928Z,13.00
2022-11-05T04:26:23.284Z,13.20
2022-11-05T04:29:10.488Z,13.10
2022-11-05T04:31:38.260Z,13.70
2022-11-05T04:34:05.133Z,11.80
2022-11-05T04:36:32.102Z,13.20
2022-11-05T04:38:58.532Z,13.70
2022-11-05T04:41:25.001Z,11.90
2022-11-05T04:43:51.462Z,12.00
2022-11-05T04:46:18.691Z,11.90
2022-11-05T04:48:45.148Z,11.10
2022-11-05T04:51:11.596Z,10.30
2022-11-05T04:53:38.058Z,10.30
2022-11-05T04:56:24.765Z,10.00
2022-11-05T04:58:52.373Z,9.70
2022-11-05T05:01:23.081Z,9.80
2022-11-05T05:03:51.672Z,10.00
2022-11-05T05:06:18.973Z,8.80
2022-11-05T05:08:47.889Z,8.90
2022-11-05T05:11:17.849Z,8.60
2022-11-05T05:13:44.432Z,8.10
2022-11-05T05:16:24.916Z,8.30
2022-11-05T05:18:53.211Z,8.20
2022-11-05T05:21:41.139Z,8.20
2022-11-05T05:24:20.982Z,9.30
2022-11-05T05:26:50.865Z,8.90
2022-11-05T05:29:18.497Z,9.30
2022-11-05T05:31:45.065Z,8.30
2022-11-05T05:34:14.014Z,8.60
2022-11-05T05:36:41.017Z,9.10
2022-11-05T05:39:10.763Z,8.80
2022-11-05T05:41:37.207Z,9.20
2022-11-05T05:44:06.379Z,8.80
2022-11-05T05:46:33.172Z,9.00
2022-11-05T05:48:59.633Z,8.60
2022-11-05T05:51:26.244Z,9.20
2022-11-05T05:53:54.831Z,9.50
2022-11-05T05:56:21.792Z,8.90
2022-11-05T05:58:48.867Z,9.20
2022-11-05T06:01:19.604Z,15.00
2022-11-05T06:03:49.006Z,11.50
2022-11-05T06:06:21.321Z,12.00
2022-11-05T06:08:48.921Z,12.50
2022-11-05T06:11:15.682Z,11.80
2022-11-05T06:13:42.159Z,18.20
2022-11-05T06:16:10.114Z,16.50
2022-11-05T06:18:37.608Z,17.10
2022-11-05T06:21:08.651Z,15.80
2022-11-05T06:23:38.946Z,21.60
2022-11-05T06:26:09.974Z,17.50
2022-11-05T06:28:36.794Z,24.20
2022-11-05T06:31:04.292Z,46.00
2022-11-05T06:33:30.760Z,36.90
2022-11-05T06:36:02.529Z,26.70
2022-11-05T06:38:33.578Z,15.90
2022-11-05T06:41:03.305Z,11.90
2022-11-05T06:43:32.453Z,12.30
2022-11-05T06:46:01.936Z,12.20
2022-11-05T06:48:29.038Z,12.20
2022-11-05T06:50:55.545Z,11.70
2022-11-05T06:53:21.914Z,11.10
2022-11-05T06:55:48.376Z,10.60
2022-11-05T06:58:15.659Z,14.80
2022-11-05T07:00:42.464Z,22.10
2022-11-05T07:03:11.967Z,25.10
2022-11-05T07:05:51.155Z,33.70
2022-11-05T07:08:17.699Z,63.50
2022-11-05T07:10:44.801Z,22.80
2022-11-05T07:13:11.612Z,18.20
2022-11-05T07:15:38.615Z,20.10
2022-11-05T07:18:07.515Z,17.00
2022-11-05T07:20:34.796Z,13.40
2022-11-05T07:23:04.481Z,12.40
2022-11-05T07:25:33.337Z,15.20
2022-11-05T07:28:00.781Z,15.20
2022-11-05T07:30:28.221Z,15.80
2022-11-05T07:32:55.117Z,17.50
2022-11-05T07:35:22.202Z,20.10
2022-11-05T07:37:51.228Z,22.30
2022-11-05T07:40:19.375Z,23.50
2022-11-05T07:42:55.951Z,23.50
2022-11-05T07:45:23.569Z,22.70
2022-11-05T07:47:54.544Z,20.50
2022-11-05T07:50:23.991Z,20.30
2022-11-05T07:52:51.189Z,18.00
2022-11-05T07:55:20.405Z,18.20
2022-11-05T07:57:50.857Z,18.10
2022-11-05T08:00:21.053Z,19.20
2022-11-05T08:03:05.589Z,18.00
2022-11-05T08:05:39.096Z,19.00
2022-11-05T08:08:07.901Z,21.50
2022-11-05T08:10:35.291Z,20.70
2022-11-05T08:13:02.864Z,19.30
2022-11-05T08:15:29.415Z,20.80
2022-11-05T08:18:07.908Z,21.70
2022-11-05T08:20:35.349Z,21.70
2022-11-05T08:23:01.773Z,22.30
2022-11-05T08:25:28.837Z,20.40
2022-11-05T08:28:05.776Z,22.40
2022-11-05T08:30:33.111Z,21.30
2022-11-05T08:33:04.394Z,21.30
2022-11-05T08:35:31.112Z,21.90
2022-11-05T08:38:02.614Z,21.40
2022-11-05T08:40:32.772Z,22.70
2022-11-05T08:43:02.557Z,25.30
2022-11-05T08:45:30.361Z,29.50
2022-11-05T08:48:08.807Z,27.40
2022-11-05T08:50:37.273Z,25.00
2022-11-05T08:53:05.437Z,24.00
2022-11-05T08:55:32.703Z,23.70
2022-11-05T08:58:02.038Z,20.60
2022-11-05T09:00:32.026Z,23.70
2022-11-05T09:03:00.983Z,20.10
2022-11-05T09:05:30.334Z,23.10
2022-11-05T09:08:00.778Z,22.50
2022-11-05T09:10:28.503Z,22.50
2022-11-05T09:12:55.119Z,20.00
2022-11-05T09:15:23.264Z,20.30
2022-11-05T09:17:50.292Z,19.00
2022-11-05T09:20:16.680Z,19.00
2022-11-05T09:22:44.378Z,17.50
2022-11-05T09:25:11.310Z,16.20
2022-11-05T09:27:37.927Z,16.30
2022-11-05T09:30:05.409Z,15.00
2022-11-05T09:32:32.636Z,15.40
2022-11-05T09:35:02.566Z,15.70
2022-11-05T09:37:29.610Z,18.20
2022-11-05T09:39:56.361Z,15.40
2022-11-05T09:42:31.497Z,16.40
2022-11-05T09:45:20.553Z,16.80
2022-11-05T09:47:55.516Z,15.10
2022-11-05T09:50:34.566Z,15.60
2022-11-05T09:53:02.142Z,12.90
2022-11-05T09:55:43.334Z,13.80
2022-11-05T09:58:25.902Z,15.90
2022-11-05T10:00:58.698Z,14.40
2022-11-05T10:03:29.923Z,15.70
2022-11-05T10:06:09.311Z,15.70
2022-11-05T10:08:43.879Z,13.20
2022-11-05T10:11:20.891Z,15.30
2022-11-05T10:13:56.188Z,13.70
2022-11-05T10:16:32.324Z,13.60
2022-11-05T10:19:09.756Z,16.10
2022-11-05T10:22:04.928Z,21.00
2022-11-05T10:24:24.272Z,16.90
2022-11-05T10:26:54.299Z,16.30
2022-11-05T10:29:32.393Z,13.30
2022-11-05T10:32:03.425Z,12.60
2022-11-05T10:34:34.598Z,14.40
2022-11-05T10:37:01.189Z,18.40
2022-11-05T10:39:30.635Z,12.60
2022-11-05T10:42:25.608Z,14.50
2022-11-05T10:45:08.899Z,14.70
2022-11-05T10:48:12.992Z,14.50
2022-11-05T10:50:39.964Z,13.80
2022-11-05T10:53:22.203Z,14.00
2022-11-05T10:55:51.903Z,13.00
2022-11-05T10:58:28.956Z,13.00
2022-11-05T11:00:55.550Z,12.90
2022-11-05T11:03:47.979Z,13.20
2022-11-05T11:06:23.704Z,15.00
2022-11-05T11:08:52.576Z,15.40
2022-11-05T11:11:37.021Z,12.40
2022-11-05T11:14:22.056Z,13.40
2022-11-05T11:16:51.585Z,14.00
2022-11-05T11:19:28.332Z,13.60
2022-11-05T11:22:03.849Z,13.40
2022-11-05T11:24:38.236Z,14.60
2022-11-05T11:27:11.263Z,13.10
2022-11-05T11:29:48.184Z,14.90
2022-11-05T11:32:20.441Z,13.50
2022-11-05T11:34:54.212Z,14.60
2022-11-05T11:37:29.942Z,14.00
2022-11-05T11:40:15.111Z,15.30
2022-11-05T11:42:52.318Z,15.50
2022-11-05T11:45:27.742Z,15.60
2022-11-05T11:47:57.119Z,14.80
2022-11-05T11:50:45.264Z,12.40
2022-11-05T11:53:20.553Z,13.40
2022-11-05T11:56:00.014Z,13.40
2022-11-05T11:58:43.555Z,10.50
2022-11-05T12:01:37.595Z,10.50
2022-11-05T12:04:27.778Z,10.20
2022-11-05T12:07:38.211Z,8.70
2022-11-05T12:10:42.256Z,9.60
2022-11-05T12:13:21.335Z,10.40
2022-11-05T12:16:05.586Z,8.60
2022-11-05T12:18:59.687Z,8.70
2022-11-05T12:21:52.593Z,8.80
2022-11-05T12:24:37.075Z,9.80
2022-11-05T12:27:26.186Z,8.80
2022-11-05T12:30:07.918Z,8.30
2022-11-05T12:33:05.295Z,9.50
2022-11-05T12:35:57.989Z,9.30
2022-11-05T12:39:04.372Z,9.50
2022-11-05T12:42:02.666Z,9.40
2022-11-05T12:45:46.986Z,8.30
2022-11-05T12:48:46.428Z,8.00
2022-11-05T12:51:48.423Z,7.40
2022-11-05T12:54:27.050Z,5.90
2022-11-05T12:56:59.225Z,7.40
2022-11-05T12:59:57.917Z,8.60
2022-11-05T13:03:15.348Z,8.00
2022-11-05T13:05:54.445Z,7.30
2022-11-05T13:08:29.791Z,6.60
2022-11-05T13:11:01.838Z,7.00
2022-11-05T13:13:39.761Z,7.80
2022-11-05T13:16:16.618Z,7.60
2022-11-05T13:18:50.801Z,8.00
2022-11-05T13:21:24.053Z,7.70
2022-11-05T13:24:03.350Z,9.50
2022-11-05T13:26:43.356Z,10.10
2022-11-05T13:29:37.641Z,11.00
2022-11-05T13:32:36.132Z,7.40
2022-11-05T13:35:07.875Z,8.30
2022-11-05T13:38:00.370Z,7.10
2022-11-05T13:41:06.296Z,6.90
2022-11-05T13:44:21.846Z,8.90
2022-11-05T13:47:23.802Z,7.50
2022-11-05T13:50:30.828Z,8.80
2022-11-05T13:53:34.604Z,10.90
2022-11-05T13:56:34.203Z,6.50
2022-11-05T13:59:30.178Z,4.90
2022-11-05T14:02:10.476Z,5.60
2022-11-05T14:04:42.071Z,5.60
2022-11-05T14:07:17.759Z,5.60
2022-11-05T14:09:45.017Z,6.10
2022-11-05T14:12:23.865Z,5.80
2022-11-05T14:14:59.119Z,6.10
2022-11-05T14:17:49.288Z,5.90
2022-11-05T14:20:32.338Z,5.30
2022-11-05T14:23:17.727Z,5.90
2022-11-05T14:25:44.059Z,5.50
2022-11-05T14:28:35.252Z,5.00
2022-11-05T14:32:08.373Z,5.80
2022-11-05T14:34:54.124Z,5.00
2022-11-05T14:37:33.370Z,3.70
2022-11-05T14:40:44.220Z,4.40
2022-11-05T14:43:26.891Z,3.90
2022-11-05T14:46:03.265Z,4.00
2022-11-05T14:48:52.049Z,3.60
2022-11-05T14:51:35.620Z,4.00
2022-11-05T14:54:19.200Z,4.20
2022-11-05T14:56:57.508Z,4.40
2022-11-05T14:59:23.890Z,5.40
2022-11-05T15:01:54.707Z,3.50
2022-11-05T15:04:33.626Z,3.40
2022-11-05T15:07:02.972Z,3.80
2022-11-05T15:09:38.179Z,3.80
2022-11-05T15:12:19.483Z,4.30
2022-11-05T15:14:59.340Z,2.60
2022-11-05T15:17:40.784Z,3.20
2022-11-05T15:20:10.934Z,4.70
2022-11-05T15:22:52.521Z,4.80
2022-11-05T15:25:30.595Z,2.60
2022-11-05T15:28:29.377Z,5.60
2022-11-05T15:31:06.083Z,3.50
2022-11-05T15:33:33.294Z,3.90
2022-11-05T15:36:29.611Z,2.70
2022-11-05T15:39:27.466Z,3.80
2022-11-05T15:41:44.914Z,4.10
2022-11-05T15:44:30.500Z,3.80
2022-11-05T15:47:19.435Z,4.00
2022-11-05T15:49:50.649Z,7.70
2022-11-05T15:52:21.673Z,6.50
2022-11-05T15:55:11.872Z,4.30
2022-11-05T15:57:51.006Z,4.50
2022-11-05T16:00:25.105Z,5.60
2022-11-05T16:02:59.278Z,5.30
2022-11-05T16:05:30.717Z,4.30
2022-11-05T16:08:04.452Z,4.50
2022-11-05T16:10:36.999Z,5.50
2022-11-05T16:13:36.997Z,5.00
2022-11-05T16:16:34.075Z,4.90
2022-11-05T16:19:00.780Z,4.50
2022-11-05T16:21:27.684Z,4.60
2022-11-05T16:23:58.585Z,4.70
2022-11-05T16:27:01.981Z,4.40
2022-11-05T16:29:35.089Z,4.60
2022-11-05T16:32:06.952Z,4.50
2022-11-05T16:34:41.408Z,4.00
2022-11-05T16:37:14.852Z,4.40
2022-11-05T16:39:41.354Z,4.30
2022-11-05T16:42:33.711Z,4.50
2022-11-05T16:45:00.130Z,5.30
2022-11-05T16:47:26.553Z,4.80
2022-11-05T16:49:53.305Z,5.20
2022-11-05T16:52:19.938Z,5.00
2022-11-05T16:54:46.504Z,4.60
2022-11-05T16:57:28.190Z,4.90
2022-11-05T16:59:56.932Z,5.40
2022-11-05T17:02:23.397Z,5.00
2022-11-05T17:04:50.132Z,5.80
2022-11-05T17:07:16.579Z,4.60
2022-11-05T17:09:43.398Z,5.60
2022-11-05T17:12:11.627Z,6.00
2022-11-05T17:14:38.200Z,5.20
2022-11-05T17:17:06.100Z,8.10
2022-11-05T17:19:33.392Z,6.70
2022-11-05T17:21:59.844Z,6.10
2022-11-05T17:24:26.277Z,6.80
2022-11-05T17:26:52.778Z,5.80
2022-11-05T17:29:19.200Z,5.60
2022-11-05T17:31:45.614Z,7.20
2022-11-05T17:34:12.060Z,5.00
2022-11-05T17:36:38.653Z,5.30
2022-11-05T17:39:05.076Z,4.80
2022-11-05T17:41:31.590Z,6.10
2022-11-05T17:43:58.206Z,6.90
2022-11-05T17:46:25.556Z,6.20
2022-11-05T17:48:52.163Z,6.30
2022-11-05T17:51:19.954Z,6.60
2022-11-05T17:53:49.024Z,6.30
2022-11-05T17:56:30.582Z,7.80
2022-11-05T17:59:01.796Z,5.90
2022-11-05T18:01:35.727Z,5.50
2022-11-05T18:04:08.577Z,6.20
2022-11-05T18:06:40.924Z,7.80
2022-11-05T18:09:09.228Z,5.70
2022-11-05T18:11:37.274Z,8.80
2022-11-05T18:14:04.491Z,5.50
2022-11-05T18:16:31.317Z,6.60
2022-11-05T18:18:57.753Z,5.80
2022-11-05T18:21:24.308Z,7.10
2022-11-05T18:23:50.969Z,6.40
2022-11-05T18:26:18.213Z,6.80
2022-11-05T18:28:45.463Z,6.70
2022-11-05T18:31:18.631Z,6.90
2022-11-05T18:33:45.381Z,6.50
2022-11-05T18:36:25.193Z,6.90
2022-11-05T18:38:52.306Z,6.50
2022-11-05T18:41:20.223Z,6.30
2022-11-05T18:43:47.381Z,6.40
2022-11-05T18:46:43.123Z,8.00
2022-11-05T18:49:02.528Z,6.90
2022-11-05T18:51:28.968Z,6.80
2022-11-05T18:53:56.271Z,7.40
2022-11-05T18:56:23.172Z,6.50
2022-11-05T18:58:50.596Z,7.80
2022-11-05T19:01:26.479Z,8.10
2022-11-05T19:03:58.001Z,7.30
2022-11-05T19:06:27.615Z,7.40
2022-11-05T19:08:56.227Z,6.90
2022-11-05T19:11:25.975Z,6.70
2022-11-05T19:13:52.588Z,7.00
2022-11-05T19:16:23.520Z,7.20
2022-11-05T19:18:50.335Z,6.90
2022-11-05T19:21:23.488Z,7.30
2022-11-05T19:23:51.897Z,7.10
2022-11-05T19:26:28.603Z,8.50
2022-11-05T19:28:59.294Z,7.60
2022-11-05T19:31:27.077Z,16.90
2022-11-05T19:33:54.343Z,8.30
2022-11-05T19:36:23.131Z,6.80
2022-11-05T19:38:57.350Z,7.90
2022-11-05T19:41:25.115Z,7.50
2022-11-05T19:43:54.333Z,7.70
2022-11-05T19:46:22.992Z,8.60
2022-11-05T19:48:51.001Z,8.50
2022-11-05T19:51:21.592Z,7.30
2022-11-05T19:53:48.972Z,6.10
2022-11-05T19:56:20.181Z,7.20
2022-11-05T19:58:47.293Z,8.00
2022-11-05T20:01:15.957Z,7.50
2022-11-05T20:03:42.935Z,9.10
2022-11-05T20:06:14.492Z,7.20
2022-11-05T20:09:06.676Z,7.10
2022-11-05T20:11:29.169Z,7.80
2022-11-05T20:13:56.803Z,7.00
2022-11-05T20:16:36.767Z,7.10
2022-11-05T20:19:07.601Z,7.00
2022-11-05T20:21:35.346Z,5.90
2022-11-05T20:24:02.603Z,6.30
2022-11-05T20:26:29.469Z,5.90
2022-11-05T20:28:56.267Z,6.50
2022-11-05T20:31:23.089Z,5.30
2022-11-05T20:33:49.621Z,7.40
2022-11-05T20:36:22.222Z,5.50
2022-11-05T20:38:50.917Z,5.40
2022-11-05T20:41:18.327Z,5.50
2022-11-05T20:43:46.793Z,5.20
2022-11-05T20:46:16.415Z,5.30
2022-11-05T20:48:43.948Z,4.50
2022-11-05T20:51:15.192Z,5.10
2022-11-05T20:53:42.056Z,5.60
2022-11-05T20:56:09.358Z,5.90
2022-11-05T20:58:37.697Z,5.40
2022-11-05T21:01:05.589Z,5.40
2022-11-05T21:03:32.486Z,5.30
2022-11-05T21:06:01.335Z,6.70
2022-11-05T21:08:28.644Z,9.10
2022-11-05T21:10:56.358Z,10.40
2022-11-05T21:13:24.201Z,14.00
2022-11-05T21:15:53.722Z,11.20
2022-11-05T21:18:23.378Z,9.90
2022-11-05T21:20:51.138Z,8.90
2022-11-05T21:23:18.501Z,9.00
2022-11-05T21:25:45.557Z,10.00
2022-11-05T21:28:14.850Z,8.20
2022-11-05T21:30:49.080Z,8.00
2022-11-05T21:33:18.544Z,8.60
2022-11-05T21:35:47.915Z,7.80
2022-11-05T21:38:17.517Z,8.40
2022-11-05T21:40:45.393Z,8.70
2022-11-05T21:43:13.658Z,9.70
2022-11-05T21:45:43.723Z,9.90
2022-11-05T21:48:11.591Z,10.70
2022-11-05T21:50:57.979Z,9.30
2022-11-05T21:53:43.075Z,13.80
2022-11-05T21:56:41.626Z,12.20
2022-11-05T21:59:36.208Z,12.40
2022-11-05T22:02:03.641Z,11.40
2022-11-05T22:04:36.835Z,11.30
2022-11-05T22:07:05.210Z,12.40
2022-11-05T22:09:32.547Z,11.80
2022-11-05T22:12:00.563Z,11.60
2022-11-05T22:14:28.108Z,8.60
2022-11-05T22:16:55.736Z,9.00
2022-11-05T22:19:23.195Z,8.50
2022-11-05T22:21:49.932Z,7.80
2022-11-05T22:24:17.595Z,8.70
2022-11-05T22:26:44.946Z,10.50
2022-11-05T22:29:12.922Z,9.10
2022-11-05T22:31:39.512Z,9.10
2022-11-05T22:34:07.077Z,9.00
2022-11-05T22:36:35.059Z,8.40
2022-11-05T22:39:02.055Z,8.90
2022-11-05T22:41:28.991Z,9.60
2022-11-05T22:43:55.797Z,8.80
2022-11-05T22:46:25.222Z,9.70
2022-11-05T22:48:53.080Z,8.50
2022-11-05T22:51:24.570Z,8.70
2022-11-05T22:53:52.024Z,7.70
2022-11-05T22:56:22.497Z,7.80
2022-11-05T22:58:50.792Z,8.90
2022-11-05T23:01:18.728Z,8.30
2022-11-05T23:03:47.509Z,8.70
2022-11-05T23:06:39.383Z,8.50
2022-11-05T23:09:31.752Z,8.10
2022-11-05T23:11:58.680Z,8.50
2022-11-05T23:14:25.809Z,7.70
2022-11-05T23:17:11.138Z,9.00
2022-11-05T23:19:56.449Z,7.90
2022-11-05T23:22:45.898Z,8.50
2022-11-05T23:25:19.766Z,7.80
2022-11-05T23:27:50.826Z,9.30
2022-11-05T23:30:26.457Z,9.00
2022-11-05T23:32:53.431Z,7.60
2022-11-05T23:35:39.962Z,8.60
2022-11-05T23:38:25.377Z,6.90
2022-11-05T23:41:10.810Z,8.90
2022-11-05T23:43:55.633Z,7.80
2022-11-05T23:46:40.542Z,7.60
2022-11-05T23:49:07.048Z,7.80
2022-11-05T23:51:33.445Z,8.30
2022-11-05T23:53:59.847Z,7.50
2022-11-05T23:56:26.298Z,8.00
2022-11-05T23:58:52.739Z,8.90
